Lexington Park, Maryland
Current Conditions -  °F | °C
As of 8:52 AM on Monday 26 Jan 2015 (Local Time) from KNHK Reporting Station
Overcast Overcast  
Wind Chill: 32°   Ceiling: 3300
Heat Index: 39°   Visibility: 10mi
Dew Point: 34°   Wind: 10mph
Humidity: 82%   Direction: 50°NE
Pressure: 29.76"   Gusts: NA
Location:  38.27°N, 76.45°W
Report Text: KNHK 261352Z 05009KT 10SM FEW011 BKN033 OVC110 04/01 A2976 RMK AO2 SLP079 T00390011 VISNO RY24 $
Loading
Personal Weather Stations






























Interactive Weather Map New forecast layout! Learn more

10-Day Weather Forecast

Advertisements
Track Severe Weather on mobile